createdAt,value
2018-07-04T00:02:54.271Z,21.30
2018-07-04T00:07:08.033Z,20.90
2018-07-04T00:11:21.648Z,21.10
2018-07-04T00:15:35.070Z,21.40
2018-07-04T00:19:48.640Z,21.60
2018-07-04T00:24:02.292Z,21.60
2018-07-04T00:28:15.880Z,21.30
2018-07-04T00:32:29.626Z,21.40
2018-07-04T00:36:43.333Z,21.70
2018-07-04T00:40:56.959Z,21.80
2018-07-04T00:45:10.433Z,21.80
2018-07-04T00:49:24.162Z,21.80
2018-07-04T00:53:37.880Z,20.90
2018-07-04T00:57:51.382Z,20.40
2018-07-04T01:02:04.898Z,20.80
2018-07-04T01:06:18.463Z,21.30
2018-07-04T01:10:32.052Z,21.40
2018-07-04T01:14:45.771Z,21.50
2018-07-04T01:18:59.387Z,21.60
2018-07-04T01:23:12.907Z,21.60
2018-07-04T01:27:26.623Z,21.60
2018-07-04T01:31:40.270Z,21.60
2018-07-04T01:35:53.788Z,21.40
2018-07-04T01:40:07.284Z,20.00
2018-07-04T01:44:20.978Z,21.10
2018-07-04T01:48:34.683Z,21.40
2018-07-04T01:52:48.180Z,21.60
2018-07-04T01:57:01.782Z,21.80
2018-07-04T02:01:15.383Z,21.70
2018-07-04T02:05:29.044Z,22.00
2018-07-04T02:09:42.667Z,21.90
2018-07-04T02:13:56.224Z,21.50
2018-07-04T02:18:09.958Z,21.30
2018-07-04T02:22:23.607Z,21.40
2018-07-04T02:26:37.112Z,21.60
2018-07-04T02:30:50.672Z,21.70
2018-07-04T02:35:04.342Z,21.80
2018-07-04T02:39:17.972Z,21.90
2018-07-04T02:43:31.435Z,21.80
2018-07-04T02:47:45.411Z,21.40
2018-07-04T02:51:59.099Z,21.30
2018-07-04T02:56:12.723Z,21.50
2018-07-04T03:00:26.185Z,21.60
2018-07-04T03:04:39.772Z,21.20
2018-07-04T03:08:53.349Z,20.60
2018-07-04T03:13:07.064Z,21.10
2018-07-04T03:17:20.571Z,21.40
2018-07-04T03:21:34.007Z,21.40
2018-07-04T03:25:47.709Z,20.70
2018-07-04T03:30:01.196Z,20.80
2018-07-04T03:34:14.793Z,21.40
2018-07-04T03:38:28.315Z,21.70
2018-07-04T03:42:41.838Z,21.70
2018-07-04T03:46:55.495Z,21.40
2018-07-04T03:51:09.044Z,21.10
2018-07-04T03:55:22.508Z,21.20
2018-07-04T03:59:36.122Z,21.10
2018-07-04T04:03:49.655Z,21.20
2018-07-04T04:08:03.338Z,21.00
2018-07-04T04:12:16.828Z,21.40
2018-07-04T04:16:30.687Z,21.70
2018-07-04T04:20:44.273Z,21.80
2018-07-04T04:24:57.921Z,21.90
2018-07-04T04:29:11.541Z,22.10
2018-07-04T04:33:25.251Z,22.20
2018-07-04T04:37:38.841Z,22.40
2018-07-04T04:41:52.515Z,22.70
2018-07-04T04:46:06.111Z,23.10
2018-07-04T04:50:19.843Z,23.70
2018-07-04T04:54:33.495Z,24.00
2018-07-04T04:58:47.182Z,24.20
2018-07-04T05:03:00.828Z,24.10
2018-07-04T05:07:14.499Z,23.80
2018-07-04T05:11:28.115Z,24.40
2018-07-04T05:15:41.842Z,24.60
2018-07-04T05:19:55.342Z,24.60
2018-07-04T05:24:08.843Z,24.40
2018-07-04T05:28:22.553Z,23.90
2018-07-04T05:32:36.148Z,24.10
2018-07-04T05:36:49.586Z,24.80
2018-07-04T05:41:03.124Z,25.60
2018-07-04T05:45:16.726Z,26.40
2018-07-04T05:49:30.607Z,26.70
2018-07-04T05:53:44.168Z,27.30
2018-07-04T05:57:57.988Z,28.60
2018-07-04T06:02:11.719Z,29.50
2018-07-04T06:06:25.619Z,30.60
2018-07-04T06:10:39.274Z,31.90
2018-07-04T06:14:52.950Z,32.30
2018-07-04T06:19:06.735Z,34.20
2018-07-04T06:23:20.742Z,33.70
2018-07-04T06:27:34.634Z,32.60
2018-07-04T06:31:48.347Z,31.60
2018-07-04T06:36:01.984Z,31.50
2018-07-04T06:40:03.127Z,31.40
2018-07-04T06:44:04.274Z,31.40
2018-07-04T06:48:05.396Z,31.10
2018-07-04T06:52:06.567Z,31.10
2018-07-04T06:56:07.664Z,31.30
2018-07-04T07:00:08.859Z,31.90
2018-07-04T07:04:22.566Z,32.10
2018-07-04T07:08:36.289Z,31.70
2018-07-04T07:12:49.919Z,32.10
2018-07-04T07:17:03.484Z,31.70
2018-07-04T07:21:17.252Z,31.90
2018-07-04T07:25:30.612Z,32.60
2018-07-04T07:29:44.499Z,32.80
2018-07-04T07:33:58.434Z,33.20
2018-07-04T07:38:12.005Z,33.80
2018-07-04T07:42:25.411Z,34.20
2018-07-04T07:46:38.959Z,33.70
2018-07-04T07:50:52.517Z,33.20
2018-07-04T07:55:06.344Z,32.20
2018-07-04T07:59:19.960Z,33.20
2018-07-04T08:03:33.647Z,32.90
2018-07-04T08:07:47.275Z,33.10
2018-07-04T08:12:00.947Z,32.70
2018-07-04T08:16:14.600Z,32.30
2018-07-04T08:20:28.050Z,32.40
2018-07-04T08:24:42.596Z,32.60
2018-07-04T08:28:56.211Z,31.80
2018-07-04T08:33:09.960Z,33.30
2018-07-04T08:37:23.532Z,33.00
2018-07-04T08:41:37.173Z,33.90
2018-07-04T08:45:50.926Z,33.90
2018-07-04T08:50:04.628Z,33.60
2018-07-04T08:54:18.287Z,33.00
2018-07-04T08:58:32.010Z,33.30
2018-07-04T09:02:45.581Z,31.40
2018-07-04T09:06:59.234Z,32.70
2018-07-04T09:11:12.698Z,33.00
2018-07-04T09:15:26.201Z,32.60
2018-07-04T09:19:39.888Z,32.40
2018-07-04T09:23:53.460Z,33.20
2018-07-04T09:28:07.088Z,33.10
2018-07-04T09:32:20.802Z,33.70
2018-07-04T09:36:34.610Z,33.30
2018-07-04T09:40:48.258Z,34.00
2018-07-04T09:45:01.739Z,33.90
2018-07-04T09:49:15.346Z,34.00
2018-07-04T09:53:28.916Z,33.90
2018-07-04T09:57:42.633Z,33.80
2018-07-04T10:01:56.275Z,34.40
2018-07-04T10:06:09.910Z,33.90
2018-07-04T10:10:23.659Z,33.70
2018-07-04T10:14:37.219Z,34.20
2018-07-04T10:18:51.033Z,33.90
2018-07-04T10:23:04.896Z,35.40
2018-07-04T10:27:18.464Z,35.00
2018-07-04T10:31:32.278Z,32.90
2018-07-04T10:35:45.924Z,33.40
2018-07-04T10:39:59.371Z,34.30
2018-07-04T10:44:12.893Z,34.10
2018-07-04T10:48:26.660Z,34.10
2018-07-04T10:52:40.217Z,34.20
2018-07-04T10:56:53.884Z,33.70
2018-07-04T11:01:07.459Z,31.00
2018-07-04T11:05:21.065Z,31.50
2018-07-04T11:09:34.655Z,33.00
2018-07-04T11:13:48.615Z,31.30
2018-07-04T11:18:02.279Z,32.90
2018-07-04T11:22:15.763Z,33.40
2018-07-04T11:26:29.424Z,31.30
2018-07-04T11:30:43.040Z,33.70
2018-07-04T11:34:56.647Z,33.50
2018-07-04T11:39:10.189Z,33.90
2018-07-04T11:43:23.866Z,32.90
2018-07-04T11:47:25.005Z,32.60
2018-07-04T11:51:26.115Z,33.40
2018-07-04T11:55:27.253Z,33.10
2018-07-04T11:59:28.414Z,33.20
2018-07-04T12:03:29.594Z,32.10
2018-07-04T12:07:30.714Z,33.30
2018-07-04T12:11:32.082Z,34.30
2018-07-04T12:15:33.250Z,35.10
2018-07-04T12:19:34.562Z,37.20
2018-07-04T12:23:35.762Z,38.10
2018-07-04T12:27:36.906Z,38.90
2018-07-04T12:31:39.151Z,39.70
2018-07-04T12:35:40.304Z,38.40
2018-07-04T12:39:41.501Z,36.80
2018-07-04T12:43:42.654Z,35.90
2018-07-04T12:47:43.792Z,35.00
2018-07-04T12:51:44.939Z,34.60
2018-07-04T12:55:58.734Z,36.30
2018-07-04T13:00:12.236Z,34.20
2018-07-04T13:04:25.929Z,33.80
2018-07-04T13:08:39.456Z,34.40
2018-07-04T13:12:53.099Z,33.90
2018-07-04T13:17:06.814Z,35.00
2018-07-04T13:21:20.526Z,35.90
2018-07-04T13:25:34.214Z,33.40
2018-07-04T13:29:48.040Z,33.40
2018-07-04T13:34:01.747Z,32.40
2018-07-04T13:38:15.588Z,32.20
2018-07-04T13:42:29.283Z,32.60
2018-07-04T13:46:42.815Z,32.70
2018-07-04T13:50:56.266Z,30.70
2018-07-04T13:55:09.943Z,29.80
2018-07-04T13:59:23.576Z,31.10
2018-07-04T14:03:37.257Z,32.50
2018-07-04T14:07:50.817Z,32.20
2018-07-04T14:12:04.651Z,32.90
2018-07-04T14:16:18.294Z,32.50
2018-07-04T14:20:32.399Z,32.90
2018-07-04T14:24:45.868Z,33.90
2018-07-04T14:28:59.516Z,34.10
2018-07-04T14:33:13.240Z,32.30
2018-07-04T14:37:27.043Z,29.50
2018-07-04T14:41:40.704Z,29.80
2018-07-04T14:45:54.633Z,30.20
2018-07-04T14:50:08.384Z,30.60
2018-07-04T14:54:21.949Z,30.70
2018-07-04T14:58:37.589Z,30.20
2018-07-04T15:02:51.864Z,30.50
2018-07-04T15:07:06.060Z,29.60
2018-07-04T15:11:19.907Z,31.00
2018-07-04T15:15:33.639Z,31.10
2018-07-04T15:19:47.071Z,31.30
2018-07-04T15:24:00.849Z,30.50
2018-07-04T15:28:14.752Z,30.50
2018-07-04T15:32:28.387Z,30.30
2018-07-04T15:36:42.220Z,29.80
2018-07-04T15:40:55.872Z,29.00
2018-07-04T15:45:09.523Z,28.30
2018-07-04T15:49:23.255Z,28.90
2018-07-04T15:53:36.982Z,28.60
2018-07-04T15:57:50.713Z,29.00
2018-07-04T16:02:04.348Z,29.60
2018-07-04T16:06:18.500Z,29.50
2018-07-04T16:10:32.167Z,29.60
2018-07-04T16:14:46.072Z,31.00
2018-07-04T16:18:59.617Z,30.10
2018-07-04T16:23:13.395Z,29.60
2018-07-04T16:27:26.953Z,29.90
2018-07-04T16:31:40.722Z,30.20
2018-07-04T16:35:54.635Z,30.40
2018-07-04T16:40:08.343Z,30.40
2018-07-04T16:44:22.195Z,30.20
2018-07-04T16:48:36.040Z,31.40
2018-07-04T16:52:49.618Z,31.30
2018-07-04T16:57:03.300Z,31.30
2018-07-04T17:01:16.944Z,31.30
2018-07-04T17:05:30.662Z,31.70
2018-07-04T17:09:44.358Z,31.70
2018-07-04T17:13:58.026Z,32.20
2018-07-04T17:18:11.795Z,32.80
2018-07-04T17:22:25.437Z,32.70
2018-07-04T17:26:39.183Z,33.10
2018-07-04T17:30:52.864Z,32.10
2018-07-04T17:35:06.436Z,32.00
2018-07-04T17:39:19.962Z,30.90
2018-07-04T17:43:33.647Z,30.70
2018-07-04T17:47:53.862Z,31.30
2018-07-04T17:52:07.418Z,31.50
2018-07-04T17:56:20.933Z,32.00
2018-07-04T18:00:35.304Z,31.10
2018-07-04T18:04:48.946Z,31.40
2018-07-04T18:09:03.273Z,30.60
2018-07-04T18:13:16.917Z,30.00
2018-07-04T18:17:30.503Z,30.20
2018-07-04T18:21:44.075Z,29.30
2018-07-04T18:25:57.537Z,28.90
2018-07-04T18:30:11.037Z,28.50
2018-07-04T18:34:24.847Z,26.90
2018-07-04T18:38:38.575Z,26.90
2018-07-04T18:42:52.144Z,27.80
2018-07-04T18:47:05.865Z,27.50
2018-07-04T18:51:19.384Z,27.10
2018-07-04T18:55:32.995Z,27.70
2018-07-04T18:59:46.635Z,27.20
2018-07-04T19:04:00.224Z,28.30
2018-07-04T19:08:13.819Z,28.30
2018-07-04T19:12:27.430Z,28.10
2018-07-04T19:16:40.963Z,28.60
2018-07-04T19:20:54.750Z,28.70
2018-07-04T19:25:08.548Z,28.80
2018-07-04T19:29:22.151Z,29.00
2018-07-04T19:33:35.854Z,29.00
2018-07-04T19:37:49.499Z,28.90
2018-07-04T19:42:02.984Z,28.80
2018-07-04T19:46:16.711Z,28.70
2018-07-04T19:50:30.735Z,28.70
2018-07-04T19:54:44.449Z,28.60
2018-07-04T19:58:58.057Z,28.40
2018-07-04T20:03:12.626Z,27.40
2018-07-04T20:07:27.217Z,27.40
2018-07-04T20:11:41.536Z,27.20
2018-07-04T20:15:55.138Z,27.20
2018-07-04T20:20:10.018Z,27.40
2018-07-04T20:24:23.533Z,27.40
2018-07-04T20:28:37.375Z,27.50
2018-07-04T20:32:50.903Z,27.70
2018-07-04T20:37:04.592Z,27.40
2018-07-04T20:41:18.567Z,26.40
2018-07-04T20:45:32.528Z,26.60
2018-07-04T20:49:46.228Z,26.50
2018-07-04T20:54:00.107Z,26.30
2018-07-04T20:58:13.779Z,26.20
2018-07-04T21:02:27.915Z,26.00
2018-07-04T21:06:41.646Z,26.50
2018-07-04T21:10:55.439Z,26.10
2018-07-04T21:15:09.135Z,26.00
2018-07-04T21:19:22.849Z,26.10
2018-07-04T21:23:36.576Z,25.80
2018-07-04T21:27:50.277Z,25.80
2018-07-04T21:32:03.963Z,25.80
2018-07-04T21:36:17.860Z,25.50
2018-07-04T21:40:31.520Z,24.90
2018-07-04T21:44:45.370Z,25.30
2018-07-04T21:48:59.096Z,25.00
2018-07-04T21:53:12.970Z,25.00
2018-07-04T21:57:26.768Z,25.00
2018-07-04T22:01:40.398Z,25.00
2018-07-04T22:05:54.540Z,24.20
2018-07-04T22:10:08.423Z,24.60
2018-07-04T22:14:22.170Z,24.50
2018-07-04T22:18:35.854Z,24.30
2018-07-04T22:22:49.495Z,24.20
2018-07-04T22:27:02.991Z,24.20
2018-07-04T22:31:16.815Z,23.90
2018-07-04T22:35:30.648Z,23.70
2018-07-04T22:39:44.224Z,23.30
2018-07-04T22:43:57.880Z,23.30
2018-07-04T22:48:11.603Z,23.80
2018-07-04T22:52:25.043Z,23.90
2018-07-04T22:56:38.519Z,23.90
2018-07-04T23:00:52.295Z,23.90
2018-07-04T23:05:05.994Z,23.70
2018-07-04T23:09:19.615Z,23.50
2018-07-04T23:13:33.163Z,23.50
2018-07-04T23:17:46.626Z,23.30
2018-07-04T23:22:00.170Z,23.10
2018-07-04T23:26:13.796Z,23.00
2018-07-04T23:30:27.435Z,23.20
2018-07-04T23:34:41.194Z,23.10
2018-07-04T23:38:54.776Z,22.80
2018-07-04T23:43:08.294Z,22.50
2018-07-04T23:47:21.850Z,22.30
2018-07-04T23:51:35.630Z,22.70
2018-07-04T23:55:49.259Z,22.30
